sensor_id;sensor_type;location;lat;lon;timestamp;temperature;humidity
578;DHT22;275;48.492;9.214;2022-10-28T00:00:31;18.00;39.50
578;DHT22;275;48.492;9.214;2022-10-28T00:02:59;17.90;39.70
578;DHT22;275;48.492;9.214;2022-10-28T00:05:26;17.70;40.50
578;DHT22;275;48.492;9.214;2022-10-28T00:07:55;17.80;39.90
578;DHT22;275;48.492;9.214;2022-10-28T00:10:22;17.80;40.10
578;DHT22;275;48.492;9.214;2022-10-28T00:12:48;17.70;40.40
578;DHT22;275;48.492;9.214;2022-10-28T00:15:15;17.50;41.40
578;DHT22;275;48.492;9.214;2022-10-28T00:17:42;17.20;41.40
578;DHT22;275;48.492;9.214;2022-10-28T00:20:09;17.20;41.80
578;DHT22;275;48.492;9.214;2022-10-28T00:22:36;17.40;41.30
578;DHT22;275;48.492;9.214;2022-10-28T00:25:05;17.50;40.60
578;DHT22;275;48.492;9.214;2022-10-28T00:27:32;17.70;40.30
578;DHT22;275;48.492;9.214;2022-10-28T00:29:59;18.00;39.70
578;DHT22;275;48.492;9.214;2022-10-28T00:32:27;18.00;39.50
578;DHT22;275;48.492;9.214;2022-10-28T00:34:54;17.80;39.90
578;DHT22;275;48.492;9.214;2022-10-28T00:37:21;17.80;39.90
578;DHT22;275;48.492;9.214;2022-10-28T00:39:48;18.00;39.50
578;DHT22;275;48.492;9.214;2022-10-28T00:42:19;17.80;40.10
578;DHT22;275;48.492;9.214;2022-10-28T00:44:54;17.40;41.10
578;DHT22;275;48.492;9.214;2022-10-28T00:47:32;17.60;40.60
578;DHT22;275;48.492;9.214;2022-10-28T00:50:19;17.30;41.50
578;DHT22;275;48.492;9.214;2022-10-28T00:52:51;17.20;41.20
578;DHT22;275;48.492;9.214;2022-10-28T00:55:20;17.40;41.40
578;DHT22;275;48.492;9.214;2022-10-28T00:57:49;17.50;40.20
578;DHT22;275;48.492;9.214;2022-10-28T01:00:16;17.50;39.80
578;DHT22;275;48.492;9.214;2022-10-28T01:02:45;17.60;39.60
578;DHT22;275;48.492;9.214;2022-10-28T01:05:15;17.40;39.80
578;DHT22;275;48.492;9.214;2022-10-28T01:07:43;17.20;40.70
578;DHT22;275;48.492;9.214;2022-10-28T01:10:12;16.90;41.30
578;DHT22;275;48.492;9.214;2022-10-28T01:12:50;16.70;42.20
578;DHT22;275;48.492;9.214;2022-10-28T01:15:28;17.00;41.50
578;DHT22;275;48.492;9.214;2022-10-28T01:18:02;17.20;41.20
578;DHT22;275;48.492;9.214;2022-10-28T01:23:51;17.10;41.10
578;DHT22;275;48.492;9.214;2022-10-28T01:26:50;17.00;41.10
578;DHT22;275;48.492;9.214;2022-10-28T01:29:39;16.90;41.60
578;DHT22;275;48.492;9.214;2022-10-28T01:32:15;16.60;42.50
578;DHT22;275;48.492;9.214;2022-10-28T01:34:48;16.80;42.20
578;DHT22;275;48.492;9.214;2022-10-28T01:37:25;16.60;42.60
578;DHT22;275;48.492;9.214;2022-10-28T01:40:00;16.80;42.10
578;DHT22;275;48.492;9.214;2022-10-28T01:42:32;17.10;41.10
578;DHT22;275;48.492;9.214;2022-10-28T01:45:11;16.90;41.70
578;DHT22;275;48.492;9.214;2022-10-28T01:47:44;16.90;41.80
578;DHT22;275;48.492;9.214;2022-10-28T01:50:18;16.90;41.90
578;DHT22;275;48.492;9.214;2022-10-28T01:52:48;16.80;42.00
578;DHT22;275;48.492;9.214;2022-10-28T01:55:20;16.90;41.60
578;DHT22;275;48.492;9.214;2022-10-28T01:57:50;17.00;41.30
578;DHT22;275;48.492;9.214;2022-10-28T02:00:17;16.90;41.40
578;DHT22;275;48.492;9.214;2022-10-28T02:02:47;16.60;42.50
578;DHT22;275;48.492;9.214;2022-10-28T02:05:35;16.50;43.00
578;DHT22;275;48.492;9.214;2022-10-28T02:08:09;16.60;42.90
578;DHT22;275;48.492;9.214;2022-10-28T02:10:45;16.70;42.50
578;DHT22;275;48.492;9.214;2022-10-28T02:13:16;16.60;42.70
578;DHT22;275;48.492;9.214;2022-10-28T02:15:46;16.60;42.60
578;DHT22;275;48.492;9.214;2022-10-28T02:18:27;16.70;42.50
578;DHT22;275;48.492;9.214;2022-10-28T02:20:59;16.60;42.60
578;DHT22;275;48.492;9.214;2022-10-28T02:23:36;16.60;42.60
578;DHT22;275;48.492;9.214;2022-10-28T02:26:11;16.60;42.90
578;DHT22;275;48.492;9.214;2022-10-28T02:28:47;16.40;43.30
578;DHT22;275;48.492;9.214;2022-10-28T02:31:21;16.40;43.40
578;DHT22;275;48.492;9.214;2022-10-28T02:33:58;16.50;43.40
578;DHT22;275;48.492;9.214;2022-10-28T02:36:27;16.60;42.90
578;DHT22;275;48.492;9.214;2022-10-28T02:38:57;16.60;42.90
578;DHT22;275;48.492;9.214;2022-10-28T02:41:30;16.70;42.80
578;DHT22;275;48.492;9.214;2022-10-28T02:44:01;16.60;42.70
578;DHT22;275;48.492;9.214;2022-10-28T02:46:30;16.40;43.10
578;DHT22;275;48.492;9.214;2022-10-28T02:49:03;16.50;42.90
578;DHT22;275;48.492;9.214;2022-10-28T02:51:34;16.50;42.80
578;DHT22;275;48.492;9.214;2022-10-28T02:54:05;16.70;42.50
578;DHT22;275;48.492;9.214;2022-10-28T02:56:38;16.40;43.00
578;DHT22;275;48.492;9.214;2022-10-28T02:59:08;16.30;43.30
578;DHT22;275;48.492;9.214;2022-10-28T03:01:36;16.10;44.00
578;DHT22;275;48.492;9.214;2022-10-28T03:04:05;16.40;43.20
578;DHT22;275;48.492;9.214;2022-10-28T03:06:32;16.20;43.40
578;DHT22;275;48.492;9.214;2022-10-28T03:08:59;16.10;43.60
578;DHT22;275;48.492;9.214;2022-10-28T03:11:25;16.10;44.00
578;DHT22;275;48.492;9.214;2022-10-28T03:13:52;16.20;43.80
578;DHT22;275;48.492;9.214;2022-10-28T03:16:19;16.30;43.50
578;DHT22;275;48.492;9.214;2022-10-28T03:18:46;16.50;42.80
578;DHT22;275;48.492;9.214;2022-10-28T03:21:14;16.60;42.20
578;DHT22;275;48.492;9.214;2022-10-28T03:23:40;16.50;42.50
578;DHT22;275;48.492;9.214;2022-10-28T03:26:07;16.10;43.80
578;DHT22;275;48.492;9.214;2022-10-28T03:28:34;16.20;43.80
578;DHT22;275;48.492;9.214;2022-10-28T03:31:01;16.20;43.70
578;DHT22;275;48.492;9.214;2022-10-28T03:33:27;15.80;44.50
578;DHT22;275;48.492;9.214;2022-10-28T03:35:54;15.60;45.50
578;DHT22;275;48.492;9.214;2022-10-28T03:38:22;15.60;45.70
578;DHT22;275;48.492;9.214;2022-10-28T03:40:50;15.80;45.30
578;DHT22;275;48.492;9.214;2022-10-28T03:43:16;16.00;44.60
578;DHT22;275;48.492;9.214;2022-10-28T03:45:43;16.40;43.40
578;DHT22;275;48.492;9.214;2022-10-28T03:48:10;16.70;42.90
578;DHT22;275;48.492;9.214;2022-10-28T03:50:37;16.60;42.50
578;DHT22;275;48.492;9.214;2022-10-28T03:53:04;16.50;43.20
578;DHT22;275;48.492;9.214;2022-10-28T03:55:32;16.50;42.90
578;DHT22;275;48.492;9.214;2022-10-28T03:57:59;16.80;42.50
578;DHT22;275;48.492;9.214;2022-10-28T04:00:26;17.00;41.90
578;DHT22;275;48.492;9.214;2022-10-28T04:02:53;17.00;41.90
578;DHT22;275;48.492;9.214;2022-10-28T04:05:20;17.10;41.80
578;DHT22;275;48.492;9.214;2022-10-28T04:07:46;17.10;41.70
578;DHT22;275;48.492;9.214;2022-10-28T04:10:13;17.20;41.20
578;DHT22;275;48.492;9.214;2022-10-28T04:12:41;17.30;41.30
578;DHT22;275;48.492;9.214;2022-10-28T04:15:08;17.30;41.30
578;DHT22;275;48.492;9.214;2022-10-28T04:17:35;17.30;41.20
578;DHT22;275;48.492;9.214;2022-10-28T04:20:02;17.30;41.40
578;DHT22;275;48.492;9.214;2022-10-28T04:22:29;17.10;41.90
578;DHT22;275;48.492;9.214;2022-10-28T04:24:55;17.00;42.30
578;DHT22;275;48.492;9.214;2022-10-28T04:27:22;16.50;43.60
578;DHT22;275;48.492;9.214;2022-10-28T04:29:50;16.60;43.60
578;DHT22;275;48.492;9.214;2022-10-28T04:32:17;16.50;43.60
578;DHT22;275;48.492;9.214;2022-10-28T04:34:44;16.60;43.30
578;DHT22;275;48.492;9.214;2022-10-28T04:37:10;16.60;43.40
578;DHT22;275;48.492;9.214;2022-10-28T04:39:37;16.90;42.60
578;DHT22;275;48.492;9.214;2022-10-28T04:42:04;17.20;41.80
578;DHT22;275;48.492;9.214;2022-10-28T04:44:31;17.00;42.50
578;DHT22;275;48.492;9.214;2022-10-28T04:46:59;17.30;41.70
578;DHT22;275;48.492;9.214;2022-10-28T04:49:25;17.40;41.30
578;DHT22;275;48.492;9.214;2022-10-28T04:51:52;17.00;42.50
578;DHT22;275;48.492;9.214;2022-10-28T04:54:19;17.10;42.20
578;DHT22;275;48.492;9.214;2022-10-28T04:56:46;17.40;41.50
578;DHT22;275;48.492;9.214;2022-10-28T04:59:12;17.60;41.30
578;DHT22;275;48.492;9.214;2022-10-28T05:01:39;17.60;40.90
578;DHT22;275;48.492;9.214;2022-10-28T05:04:07;17.60;40.90
578;DHT22;275;48.492;9.214;2022-10-28T05:06:34;17.50;41.10
578;DHT22;275;48.492;9.214;2022-10-28T05:09:01;17.60;40.90
578;DHT22;275;48.492;9.214;2022-10-28T05:11:27;17.70;41.00
578;DHT22;275;48.492;9.214;2022-10-28T05:13:54;17.60;41.20
578;DHT22;275;48.492;9.214;2022-10-28T05:16:21;17.60;40.90
578;DHT22;275;48.492;9.214;2022-10-28T05:18:48;17.60;40.70
578;DHT22;275;48.492;9.214;2022-10-28T05:21:16;17.60;40.10
578;DHT22;275;48.492;9.214;2022-10-28T05:23:43;17.50;40.10
578;DHT22;275;48.492;9.214;2022-10-28T05:26:09;17.40;40.10
578;DHT22;275;48.492;9.214;2022-10-28T05:28:36;17.10;40.80
578;DHT22;275;48.492;9.214;2022-10-28T05:31:03;17.00;40.90
578;DHT22;275;48.492;9.214;2022-10-28T05:33:30;16.80;41.50
578;DHT22;275;48.492;9.214;2022-10-28T05:35:58;16.50;42.80
578;DHT22;275;48.492;9.214;2022-10-28T05:38:26;16.40;43.00
578;DHT22;275;48.492;9.214;2022-10-28T05:40:53;16.50;43.00
578;DHT22;275;48.492;9.214;2022-10-28T05:43:20;16.00;45.00
578;DHT22;275;48.492;9.214;2022-10-28T05:45:51;15.70;46.10
578;DHT22;275;48.492;9.214;2022-10-28T05:48:18;15.90;45.80
578;DHT22;275;48.492;9.214;2022-10-28T05:50:45;15.50;47.70
578;DHT22;275;48.492;9.214;2022-10-28T05:53:12;15.60;47.00
578;DHT22;275;48.492;9.214;2022-10-28T05:55:40;16.10;45.80
578;DHT22;275;48.492;9.214;2022-10-28T05:58:07;16.50;44.70
578;DHT22;275;48.492;9.214;2022-10-28T06:00:35;16.90;43.70
578;DHT22;275;48.492;9.214;2022-10-28T06:03:02;17.10;43.30
578;DHT22;275;48.492;9.214;2022-10-28T06:05:31;17.30;42.80
578;DHT22;275;48.492;9.214;2022-10-28T06:07:58;17.50;42.50
578;DHT22;275;48.492;9.214;2022-10-28T06:10:24;17.60;42.10
578;DHT22;275;48.492;9.214;2022-10-28T06:12:53;17.30;43.20
578;DHT22;275;48.492;9.214;2022-10-28T06:15:20;17.30;43.00
578;DHT22;275;48.492;9.214;2022-10-28T06:17:47;17.50;42.50
578;DHT22;275;48.492;9.214;2022-10-28T06:20:15;17.80;41.80
578;DHT22;275;48.492;9.214;2022-10-28T06:22:46;18.00;41.50
578;DHT22;275;48.492;9.214;2022-10-28T06:25:13;18.20;41.10
578;DHT22;275;48.492;9.214;2022-10-28T06:27:40;18.10;41.30
578;DHT22;275;48.492;9.214;2022-10-28T06:30:09;18.10;41.10
578;DHT22;275;48.492;9.214;2022-10-28T06:32:36;18.20;40.90
578;DHT22;275;48.492;9.214;2022-10-28T06:35:03;18.30;40.60
578;DHT22;275;48.492;9.214;2022-10-28T06:37:30;18.20;40.60
578;DHT22;275;48.492;9.214;2022-10-28T06:39:57;17.90;41.40
578;DHT22;275;48.492;9.214;2022-10-28T06:42:24;18.00;41.10
578;DHT22;275;48.492;9.214;2022-10-28T06:44:51;18.20;40.60
578;DHT22;275;48.492;9.214;2022-10-28T06:47:20;18.20;40.70
578;DHT22;275;48.492;9.214;2022-10-28T06:49:47;18.40;40.10
578;DHT22;275;48.492;9.214;2022-10-28T06:52:14;18.30;40.20
578;DHT22;275;48.492;9.214;2022-10-28T06:54:40;18.10;40.70
578;DHT22;275;48.492;9.214;2022-10-28T06:57:08;18.10;40.40
578;DHT22;275;48.492;9.214;2022-10-28T06:59:34;18.20;40.20
578;DHT22;275;48.492;9.214;2022-10-28T07:02:01;18.20;40.10
578;DHT22;275;48.492;9.214;2022-10-28T07:04:29;18.20;40.20
578;DHT22;275;48.492;9.214;2022-10-28T07:06:56;18.00;40.90
578;DHT22;275;48.492;9.214;2022-10-28T07:09:23;18.10;40.80
578;DHT22;275;48.492;9.214;2022-10-28T07:11:50;18.10;41.00
578;DHT22;275;48.492;9.214;2022-10-28T07:14:17;18.10;41.20
578;DHT22;275;48.492;9.214;2022-10-28T07:16:44;18.30;40.90
578;DHT22;275;48.492;9.214;2022-10-28T07:19:10;18.60;41.20
578;DHT22;275;48.492;9.214;2022-10-28T07:21:39;18.20;41.90
578;DHT22;275;48.492;9.214;2022-10-28T07:24:06;17.70;43.40
578;DHT22;275;48.492;9.214;2022-10-28T07:26:32;17.80;43.90
578;DHT22;275;48.492;9.214;2022-10-28T07:28:59;18.50;41.50
578;DHT22;275;48.492;9.214;2022-10-28T07:31:26;19.00;39.80
578;DHT22;275;48.492;9.214;2022-10-28T07:33:54;19.30;37.80
578;DHT22;275;48.492;9.214;2022-10-28T07:36:20;19.40;38.80
578;DHT22;275;48.492;9.214;2022-10-28T07:38:49;19.30;38.70
578;DHT22;275;48.492;9.214;2022-10-28T07:41:18;19.20;39.00
578;DHT22;275;48.492;9.214;2022-10-28T07:43:45;18.90;39.80
578;DHT22;275;48.492;9.214;2022-10-28T07:46:12;18.90;39.90
578;DHT22;275;48.492;9.214;2022-10-28T07:48:39;19.00;39.60
578;DHT22;275;48.492;9.214;2022-10-28T07:51:07;19.00;39.40
578;DHT22;275;48.492;9.214;2022-10-28T07:53:34;19.00;39.40
578;DHT22;275;48.492;9.214;2022-10-28T07:56:05;19.00;39.30
578;DHT22;275;48.492;9.214;2022-10-28T07:58:34;18.90;39.20
578;DHT22;275;48.492;9.214;2022-10-28T08:01:03;18.90;39.20
578;DHT22;275;48.492;9.214;2022-10-28T08:03:30;18.90;39.20
578;DHT22;275;48.492;9.214;2022-10-28T08:06:00;19.00;39.10
578;DHT22;275;48.492;9.214;2022-10-28T08:08:27;18.90;39.60
578;DHT22;275;48.492;9.214;2022-10-28T08:10:54;19.00;39.50
578;DHT22;275;48.492;9.214;2022-10-28T08:13:22;19.30;39.00
578;DHT22;275;48.492;9.214;2022-10-28T08:15:52;18.90;39.60
578;DHT22;275;48.492;9.214;2022-10-28T08:18:19;18.30;41.30
578;DHT22;275;48.492;9.214;2022-10-28T08:20:46;18.50;41.40
578;DHT22;275;48.492;9.214;2022-10-28T08:23:14;19.00;40.20
578;DHT22;275;48.492;9.214;2022-10-28T08:25:47;19.40;39.50
578;DHT22;275;48.492;9.214;2022-10-28T08:28:14;19.60;38.80
578;DHT22;275;48.492;9.214;2022-10-28T08:30:42;19.60;39.10
578;DHT22;275;48.492;9.214;2022-10-28T08:33:09;19.60;39.20
578;DHT22;275;48.492;9.214;2022-10-28T08:35:36;20.30;37.70
578;DHT22;275;48.492;9.214;2022-10-28T08:38:03;20.10;37.80
578;DHT22;275;48.492;9.214;2022-10-28T08:40:36;20.60;37.00
578;DHT22;275;48.492;9.214;2022-10-28T08:43:14;20.70;36.40
578;DHT22;275;48.492;9.214;2022-10-28T08:45:49;20.70;37.00
578;DHT22;275;48.492;9.214;2022-10-28T08:48:25;20.90;36.00
578;DHT22;275;48.492;9.214;2022-10-28T08:50:58;21.30;35.10
578;DHT22;275;48.492;9.214;2022-10-28T08:53:30;21.70;33.90
578;DHT22;275;48.492;9.214;2022-10-28T08:56:06;22.00;33.50
578;DHT22;275;48.492;9.214;2022-10-28T08:58:35;22.50;32.30
578;DHT22;275;48.492;9.214;2022-10-28T09:01:08;22.80;31.00
578;DHT22;275;48.492;9.214;2022-10-28T09:03:41;22.90;30.10
578;DHT22;275;48.492;9.214;2022-10-28T09:06:09;22.80;30.80
578;DHT22;275;48.492;9.214;2022-10-28T09:08:39;22.80;30.60
578;DHT22;275;48.492;9.214;2022-10-28T09:11:30;23.00;30.30
578;DHT22;275;48.492;9.214;2022-10-28T09:14:10;22.60;31.20
578;DHT22;275;48.492;9.214;2022-10-28T09:16:45;22.80;30.50
578;DHT22;275;48.492;9.214;2022-10-28T09:19:30;22.80;30.00
578;DHT22;275;48.492;9.214;2022-10-28T09:22:07;23.00;30.00
578;DHT22;275;48.492;9.214;2022-10-28T09:24:42;23.30;29.90
578;DHT22;275;48.492;9.214;2022-10-28T09:27:15;23.50;29.30
578;DHT22;275;48.492;9.214;2022-10-28T09:29:52;23.80;29.30
578;DHT22;275;48.492;9.214;2022-10-28T09:32:29;24.00;29.00
578;DHT22;275;48.492;9.214;2022-10-28T09:35:06;24.00;28.80
578;DHT22;275;48.492;9.214;2022-10-28T09:37:38;23.70;29.30
578;DHT22;275;48.492;9.214;2022-10-28T09:40:14;23.60;29.90
578;DHT22;275;48.492;9.214;2022-10-28T09:42:51;23.50;30.40
578;DHT22;275;48.492;9.214;2022-10-28T09:45:24;23.40;30.90
578;DHT22;275;48.492;9.214;2022-10-28T09:47:58;23.10;31.10
578;DHT22;275;48.492;9.214;2022-10-28T09:50:29;23.10;31.00
578;DHT22;275;48.492;9.214;2022-10-28T09:53:02;22.40;32.50
578;DHT22;275;48.492;9.214;2022-10-28T09:55:30;22.50;32.60
578;DHT22;275;48.492;9.214;2022-10-28T09:57:57;22.80;32.20
578;DHT22;275;48.492;9.214;2022-10-28T10:00:24;22.10;33.90
578;DHT22;275;48.492;9.214;2022-10-28T10:02:56;22.10;32.90
578;DHT22;275;48.492;9.214;2022-10-28T10:05:23;22.20;33.90
578;DHT22;275;48.492;9.214;2022-10-28T10:07:53;22.80;33.00
578;DHT22;275;48.492;9.214;2022-10-28T10:10:26;23.70;30.70
578;DHT22;275;48.492;9.214;2022-10-28T10:12:57;23.60;31.10
578;DHT22;275;48.492;9.214;2022-10-28T10:15:28;24.00;30.30
578;DHT22;275;48.492;9.214;2022-10-28T10:17:59;24.30;29.80
578;DHT22;275;48.492;9.214;2022-10-28T10:20:26;24.00;30.00
578;DHT22;275;48.492;9.214;2022-10-28T10:22:53;24.30;29.50
578;DHT22;275;48.492;9.214;2022-10-28T10:25:26;24.80;28.60
578;DHT22;275;48.492;9.214;2022-10-28T10:27:58;25.00;28.20
578;DHT22;275;48.492;9.214;2022-10-28T10:30:28;25.10;28.30
578;DHT22;275;48.492;9.214;2022-10-28T10:32:57;25.30;27.90
578;DHT22;275;48.492;9.214;2022-10-28T10:35:26;25.60;27.50
578;DHT22;275;48.492;9.214;2022-10-28T10:37:56;26.10;26.20
578;DHT22;275;48.492;9.214;2022-10-28T10:40:25;26.00;26.20
578;DHT22;275;48.492;9.214;2022-10-28T10:42:57;26.10;26.40
578;DHT22;275;48.492;9.214;2022-10-28T10:45:39;26.20;26.60
578;DHT22;275;48.492;9.214;2022-10-28T10:48:12;26.30;26.60
578;DHT22;275;48.492;9.214;2022-10-28T10:50:40;26.10;26.90
578;DHT22;275;48.492;9.214;2022-10-28T10:53:17;25.80;27.00
578;DHT22;275;48.492;9.214;2022-10-28T10:55:49;26.00;26.90
578;DHT22;275;48.492;9.214;2022-10-28T10:58:19;26.40;26.20
578;DHT22;275;48.492;9.214;2022-10-28T11:00:48;26.70;25.80
578;DHT22;275;48.492;9.214;2022-10-28T11:03:20;27.10;25.40
578;DHT22;275;48.492;9.214;2022-10-28T11:05:49;27.30;24.20
578;DHT22;275;48.492;9.214;2022-10-28T11:08:30;26.90;25.10
578;DHT22;275;48.492;9.214;2022-10-28T11:11:13;26.50;24.70
578;DHT22;275;48.492;9.214;2022-10-28T11:13:45;26.20;25.90
578;DHT22;275;48.492;9.214;2022-10-28T11:16:19;26.00;26.50
578;DHT22;275;48.492;9.214;2022-10-28T11:18:50;25.50;27.40
578;DHT22;275;48.492;9.214;2022-10-28T11:21:29;25.80;27.00
578;DHT22;275;48.492;9.214;2022-10-28T11:24:12;26.00;26.60
578;DHT22;275;48.492;9.214;2022-10-28T11:26:49;26.00;26.50
578;DHT22;275;48.492;9.214;2022-10-28T11:29:17;25.80;27.10
578;DHT22;275;48.492;9.214;2022-10-28T11:31:56;25.80;27.10
578;DHT22;275;48.492;9.214;2022-10-28T11:34:36;25.80;27.20
578;DHT22;275;48.492;9.214;2022-10-28T11:37:14;25.90;27.10
578;DHT22;275;48.492;9.214;2022-10-28T11:39:52;26.10;27.10
578;DHT22;275;48.492;9.214;2022-10-28T11:42:31;26.10;27.10
578;DHT22;275;48.492;9.214;2022-10-28T11:45:05;26.20;26.90
578;DHT22;275;48.492;9.214;2022-10-28T11:47:48;26.30;26.50
578;DHT22;275;48.492;9.214;2022-10-28T11:50:27;26.30;26.70
578;DHT22;275;48.492;9.214;2022-10-28T11:56:06;26.30;26.60
578;DHT22;275;48.492;9.214;2022-10-28T11:58:42;26.40;26.50
578;DHT22;275;48.492;9.214;2022-10-28T12:01:20;26.10;26.40
578;DHT22;275;48.492;9.214;2022-10-28T12:03:58;25.50;27.40
578;DHT22;275;48.492;9.214;2022-10-28T12:06:39;25.50;27.00
578;DHT22;275;48.492;9.214;2022-10-28T12:09:22;25.20;27.80
578;DHT22;275;48.492;9.214;2022-10-28T12:12:04;25.50;27.70
578;DHT22;275;48.492;9.214;2022-10-28T12:14:39;26.10;26.70
578;DHT22;275;48.492;9.214;2022-10-28T12:17:15;26.20;26.60
578;DHT22;275;48.492;9.214;2022-10-28T12:19:46;26.30;26.20
578;DHT22;275;48.492;9.214;2022-10-28T12:22:22;26.30;26.20
578;DHT22;275;48.492;9.214;2022-10-28T12:24:50;26.10;26.60
578;DHT22;275;48.492;9.214;2022-10-28T12:27:22;25.80;27.20
578;DHT22;275;48.492;9.214;2022-10-28T12:29:53;26.00;26.90
578;DHT22;275;48.492;9.214;2022-10-28T12:32:25;25.80;27.20
578;DHT22;275;48.492;9.214;2022-10-28T12:34:57;25.40;28.00
578;DHT22;275;48.492;9.214;2022-10-28T12:37:32;25.90;27.30
578;DHT22;275;48.492;9.214;2022-10-28T12:40:05;27.60;24.90
578;DHT22;275;48.492;9.214;2022-10-28T12:42:37;30.20;22.30
578;DHT22;275;48.492;9.214;2022-10-28T12:45:10;32.10;20.00
578;DHT22;275;48.492;9.214;2022-10-28T12:47:41;33.40;18.20
578;DHT22;275;48.492;9.214;2022-10-28T12:50:18;33.80;17.10
578;DHT22;275;48.492;9.214;2022-10-28T12:52:52;34.60;16.70
578;DHT22;275;48.492;9.214;2022-10-28T12:55:26;35.60;15.40
578;DHT22;275;48.492;9.214;2022-10-28T12:58:00;37.00;14.60
578;DHT22;275;48.492;9.214;2022-10-28T13:00:30;37.50;13.90
578;DHT22;275;48.492;9.214;2022-10-28T13:03:03;38.00;13.90
578;DHT22;275;48.492;9.214;2022-10-28T13:05:36;39.40;12.70
578;DHT22;275;48.492;9.214;2022-10-28T13:08:39;39.50;12.40
578;DHT22;275;48.492;9.214;2022-10-28T13:11:49;39.10;12.90
578;DHT22;275;48.492;9.214;2022-10-28T13:14:40;38.60;13.50
578;DHT22;275;48.492;9.214;2022-10-28T13:17:22;39.20;12.90
578;DHT22;275;48.492;9.214;2022-10-28T13:20:02;39.40;12.80
578;DHT22;275;48.492;9.214;2022-10-28T13:22:53;39.10;13.30
578;DHT22;275;48.492;9.214;2022-10-28T13:25:56;39.10;13.00
578;DHT22;275;48.492;9.214;2022-10-28T13:28:28;38.50;13.70
578;DHT22;275;48.492;9.214;2022-10-28T13:30:57;38.60;13.90
578;DHT22;275;48.492;9.214;2022-10-28T13:33:26;38.30;13.80
578;DHT22;275;48.492;9.214;2022-10-28T13:35:54;39.10;13.30
578;DHT22;275;48.492;9.214;2022-10-28T13:38:24;38.90;13.30
578;DHT22;275;48.492;9.214;2022-10-28T13:41:24;38.90;13.20
578;DHT22;275;48.492;9.214;2022-10-28T13:44:25;39.30;12.70
578;DHT22;275;48.492;9.214;2022-10-28T13:50:32;38.40;13.40
578;DHT22;275;48.492;9.214;2022-10-28T13:56:34;36.30;15.50
578;DHT22;275;48.492;9.214;2022-10-28T13:59:04;35.00;16.70
578;DHT22;275;48.492;9.214;2022-10-28T14:01:55;33.90;18.00
578;DHT22;275;48.492;9.214;2022-10-28T14:04:26;33.30;18.70
578;DHT22;275;48.492;9.214;2022-10-28T14:07:03;33.00;18.90
578;DHT22;275;48.492;9.214;2022-10-28T14:09:33;32.60;19.30
578;DHT22;275;48.492;9.214;2022-10-28T14:12:14;32.70;18.70
578;DHT22;275;48.492;9.214;2022-10-28T14:17:40;32.70;18.70
578;DHT22;275;48.492;9.214;2022-10-28T14:20:23;33.00;18.40
578;DHT22;275;48.492;9.214;2022-10-28T14:22:52;32.80;18.60
578;DHT22;275;48.492;9.214;2022-10-28T14:28:52;31.60;20.10
578;DHT22;275;48.492;9.214;2022-10-28T14:31:39;30.30;21.80
578;DHT22;275;48.492;9.214;2022-10-28T14:34:38;29.90;22.60
578;DHT22;275;48.492;9.214;2022-10-28T14:37:37;29.80;23.00
578;DHT22;275;48.492;9.214;2022-10-28T14:40:28;29.60;23.40
578;DHT22;275;48.492;9.214;2022-10-28T14:43:06;29.30;23.70
578;DHT22;275;48.492;9.214;2022-10-28T14:45:40;28.90;24.30
578;DHT22;275;48.492;9.214;2022-10-28T14:48:40;28.50;24.90
578;DHT22;275;48.492;9.214;2022-10-28T14:51:13;28.50;24.80
578;DHT22;275;48.492;9.214;2022-10-28T14:53:41;28.60;24.90
578;DHT22;275;48.492;9.214;2022-10-28T14:56:14;28.70;25.10
578;DHT22;275;48.492;9.214;2022-10-28T14:58:43;28.70;25.20
578;DHT22;275;48.492;9.214;2022-10-28T15:01:23;28.60;25.50
578;DHT22;275;48.492;9.214;2022-10-28T15:03:53;28.40;25.80
578;DHT22;275;48.492;9.214;2022-10-28T15:06:29;28.30;26.10
578;DHT22;275;48.492;9.214;2022-10-28T15:09:06;28.20;26.40
578;DHT22;275;48.492;9.214;2022-10-28T15:11:33;28.10;26.90
578;DHT22;275;48.492;9.214;2022-10-28T15:14:14;27.90;26.80
578;DHT22;275;48.492;9.214;2022-10-28T15:16:48;27.80;26.80
578;DHT22;275;48.492;9.214;2022-10-28T15:19:18;27.80;27.60
578;DHT22;275;48.492;9.214;2022-10-28T15:22:02;27.80;27.00
578;DHT22;275;48.492;9.214;2022-10-28T15:24:29;27.50;28.20
578;DHT22;275;48.492;9.214;2022-10-28T15:26:56;27.00;29.70
578;DHT22;275;48.492;9.214;2022-10-28T15:29:23;27.10;29.80
578;DHT22;275;48.492;9.214;2022-10-28T15:32:11;26.80;30.80
578;DHT22;275;48.492;9.214;2022-10-28T15:34:41;26.60;30.50
578;DHT22;275;48.492;9.214;2022-10-28T15:37:08;26.30;31.30
578;DHT22;275;48.492;9.214;2022-10-28T15:39:36;25.90;32.10
578;DHT22;275;48.492;9.214;2022-10-28T15:42:30;25.80;32.70
578;DHT22;275;48.492;9.214;2022-10-28T15:44:58;25.50;33.60
578;DHT22;275;48.492;9.214;2022-10-28T15:47:29;25.60;33.20
578;DHT22;275;48.492;9.214;2022-10-28T15:50:01;25.80;32.60
578;DHT22;275;48.492;9.214;2022-10-28T15:52:33;25.90;32.40
578;DHT22;275;48.492;9.214;2022-10-28T15:55:02;26.00;32.10
578;DHT22;275;48.492;9.214;2022-10-28T15:57:30;25.80;33.10
578;DHT22;275;48.492;9.214;2022-10-28T16:00:19;25.80;33.40
578;DHT22;275;48.492;9.214;2022-10-28T16:02:51;25.20;35.40
578;DHT22;275;48.492;9.214;2022-10-28T16:05:54;24.90;36.50
578;DHT22;275;48.492;9.214;2022-10-28T16:08:24;24.90;36.20
578;DHT22;275;48.492;9.214;2022-10-28T16:10:54;24.90;36.20
578;DHT22;275;48.492;9.214;2022-10-28T16:13:24;24.90;35.90
578;DHT22;275;48.492;9.214;2022-10-28T16:15:55;25.00;35.20
578;DHT22;275;48.492;9.214;2022-10-28T16:18:26;24.90;34.30
578;DHT22;275;48.492;9.214;2022-10-28T16:20:54;24.80;32.80
578;DHT22;275;48.492;9.214;2022-10-28T16:23:22;24.50;32.10
578;DHT22;275;48.492;9.214;2022-10-28T16:25:49;24.60;31.00
578;DHT22;275;48.492;9.214;2022-10-28T16:28:20;24.50;30.20
578;DHT22;275;48.492;9.214;2022-10-28T16:30:50;24.30;30.50
578;DHT22;275;48.492;9.214;2022-10-28T16:33:18;24.20;30.00
578;DHT22;275;48.492;9.214;2022-10-28T16:35:48;24.20;29.40
578;DHT22;275;48.492;9.214;2022-10-28T16:38:15;24.20;29.30
578;DHT22;275;48.492;9.214;2022-10-28T16:40:42;23.90;29.60
578;DHT22;275;48.492;9.214;2022-10-28T16:43:20;24.00;29.20
578;DHT22;275;48.492;9.214;2022-10-28T16:45:47;24.10;29.00
578;DHT22;275;48.492;9.214;2022-10-28T16:48:15;24.00;28.70
578;DHT22;275;48.492;9.214;2022-10-28T16:50:43;23.80;28.70
578;DHT22;275;48.492;9.214;2022-10-28T16:53:14;23.40;29.70
578;DHT22;275;48.492;9.214;2022-10-28T16:55:41;23.00;29.80
578;DHT22;275;48.492;9.214;2022-10-28T16:58:08;22.80;30.20
578;DHT22;275;48.492;9.214;2022-10-28T17:00:35;22.70;30.40
578;DHT22;275;48.492;9.214;2022-10-28T17:03:03;22.50;30.70
578;DHT22;275;48.492;9.214;2022-10-28T17:05:30;22.40;31.10
578;DHT22;275;48.492;9.214;2022-10-28T17:07:57;22.30;31.10
578;DHT22;275;48.492;9.214;2022-10-28T17:10:26;22.70;30.30
578;DHT22;275;48.492;9.214;2022-10-28T17:12:53;22.80;30.00
578;DHT22;275;48.492;9.214;2022-10-28T17:15:20;23.00;30.10
578;DHT22;275;48.492;9.214;2022-10-28T17:17:50;22.90;29.50
578;DHT22;275;48.492;9.214;2022-10-28T17:20:18;22.80;29.90
578;DHT22;275;48.492;9.214;2022-10-28T17:22:46;22.60;30.00